Terminal Aerodrome Forecast
Issued by NWS Spokane, WA

Home | Current Version | Previous Version | Text Only | Print | Product List | Glossary On
Versions: 1 2 3 4 5 6 7 8 9 10 11 12 13 14 15 16 17 18 19 20 21 22 23 24 25 26 27
000
FTUS46 KOTX 241822 AAA
TAFGEG
TAF AMD
KGEG 241822Z 2418/2518 23004KT P6SM -SN SCT012 BKN028
      TEMPO 2418/2422 1SM -SN BR OVC003
     FM242200 25004KT P6SM SCT003 OVC006
     FM250200 23004KT P6SM OVC010
     FM250600 24003KT 2SM BR VCSH SCT001 OVC005
     FM250900 23003KT 1SM BR VCSH OVC002
     FM251400 22003KT 2SM BR OVC003=

USA.gov is the U.S. government's official web portal to all federal, state and local government web resources and services.